Time;durP1;ratioP1;P1;durP2;ratioP2;P2;SDS_P1;SDS_P2;PMS_P1;PMS_P2;Temp;Humidity;BMP_temperature;BMP_pressure;BME280_temperature;BME280_humidity;BME280_pressure;Samples;Min_cycle;Max_cycle;Signal;HPM_P1;HPM_P2
2023/03/27 00:01:41;;;;;;;7.60;2.17;;;4.30;96.90;;;;;;5085191;28;20442;-70
2023/03/27 00:04:08;;;;;;;11.90;2.80;;;4.20;97.20;;;;;;5099582;28;20999;-72
2023/03/27 00:06:36;;;;;;;7.20;2.30;;;4.20;97.80;;;;;;5091562;28;21059;-69
2023/03/27 00:09:03;;;;;;;6.30;2.37;;;4.20;97.40;;;;;;5102087;28;20915;-70
2023/03/27 00:11:30;;;;;;;7.35;2.30;;;4.10;97.40;;;;;;5096527;28;20424;-71
2023/03/27 00:13:59;;;;;;;10.10;2.30;;;4.10;96.30;;;;;;5083182;28;20455;-71
2023/03/27 00:16:27;;;;;;;7.00;2.40;;;4.10;96.70;;;;;;5084302;28;20568;-69
2023/03/27 00:18:54;;;;;;;6.45;2.58;;;4.10;97.20;;;;;;5083854;28;20863;-70
2023/03/27 00:21:22;;;;;;;7.25;2.00;;;4.00;98.00;;;;;;5074720;28;20710;-71
2023/03/27 00:23:48;;;;;;;6.05;2.10;;;4.00;98.20;;;;;;5087900;28;20454;-73
2023/03/27 00:26:15;;;;;;;6.13;2.03;;;4.00;98.70;;;;;;5089454;28;20430;-70
2023/03/27 00:28:42;;;;;;;7.20;2.10;;;4.00;97.40;;;;;;5071039;28;20805;-69
2023/03/27 00:31:12;;;;;;;7.35;2.58;;;4.00;97.80;;;;;;5088340;28;20421;-70
2023/03/27 00:33:39;;;;;;;5.45;2.17;;;4.00;97.90;;;;;;5085140;28;20435;-70
2023/03/27 00:36:07;;;;;;;6.15;2.67;;;4.00;98.40;;;;;;5086109;28;20689;-69
2023/03/27 00:38:33;;;;;;;6.18;1.85;;;3.90;98.10;;;;;;5082600;28;20771;-70
2023/03/27 00:41:01;;;;;;;5.43;2.25;;;3.90;97.60;;;;;;5105470;28;20423;-71
2023/03/27 00:43:32;;;;;;;8.48;2.95;;;3.90;97.10;;;;;;5082510;28;20415;-71
2023/03/27 00:46:03;;;;;;;4.97;2.40;;;3.80;96.90;;;;;;5069445;28;20420;-70
2023/03/27 00:48:34;;;;;;;7.70;2.58;;;3.80;97.50;;;;;;5081276;28;20431;-71
2023/03/27 00:51:02;;;;;;;6.95;2.30;;;3.80;97.30;;;;;;5105535;28;20411;-71
2023/03/27 00:53:29;;;;;;;8.52;2.90;;;3.70;97.30;;;;;;5078727;28;20430;-70
2023/03/27 00:56:01;;;;;;;7.35;2.30;;;3.70;97.70;;;;;;5103615;28;20412;-70
2023/03/27 00:58:31;;;;;;;8.07;2.30;;;3.70;98.00;;;;;;5088694;28;20426;-71
2023/03/27 01:00:58;;;;;;;8.48;2.70;;;3.60;97.90;;;;;;5076346;28;20439;-71
2023/03/27 01:03:30;;;;;;;9.13;2.60;;;3.60;98.70;;;;;;5089016;28;20418;-69
2023/03/27 01:06:00;;;;;;;9.63;2.30;;;3.60;98.90;;;;;;5075244;28;20432;-70
2023/03/27 01:08:29;;;;;;;7.97;2.30;;;3.50;99.00;;;;;;5096625;28;20452;-70
2023/03/27 01:11:08;;;;;;;9.30;2.90;;;3.50;99.90;;;;;;5096259;28;20423;-70
2023/03/27 01:13:52;;;;;;;7.68;2.08;;;3.50;99.40;;;;;;5075416;28;20794;-70
2023/03/27 01:16:27;;;;;;;6.38;2.10;;;3.40;99.00;;;;;;5092503;28;20427;-71
2023/03/27 01:19:02;;;;;;;8.00;2.60;;;3.40;99.90;;;;;;5083223;28;20426;-70
2023/03/27 01:22:09;;;;;;;8.93;3.00;;;3.40;99.90;;;;;;5068107;28;20415;-70
2023/03/27 01:25:27;;;;;;;7.10;2.40;;;3.40;99.90;;;;;;5051422;28;20424;-68
2023/03/27 01:28:16;;;;;;;6.93;2.67;;;3.40;99.40;;;;;;5000039;28;20436;-70
2023/03/27 01:30:50;;;;;;;7.80;2.55;;;3.40;99.90;;;;;;4996777;28;20436;-70
2023/03/27 01:33:47;;;;;;;10.90;3.17;;;3.30;99.90;;;;;;5053276;28;20427;-71
2023/03/27 01:36:34;;;;;;;7.13;2.28;;;3.30;99.90;;;;;;5068888;28;20427;-69
2023/03/27 01:39:25;;;;;;;6.47;2.30;;;3.30;99.90;;;;;;5096193;28;20455;-70
2023/03/27 01:41:56;;;;;;;7.10;2.00;;;3.30;99.90;;;;;;5085747;28;20416;-70
2023/03/27 01:44:32;;;;;;;6.93;2.13;;;3.20;99.90;;;;;;5067589;28;20415;-70
2023/03/27 01:47:06;;;;;;;7.40;2.10;;;3.30;99.90;;;;;;5077360;28;20431;-70
2023/03/27 01:49:38;;;;;;;6.40;2.20;;;3.20;99.90;;;;;;5092609;28;20910;-70
2023/03/27 01:52:10;;;;;;;4.55;1.85;;;3.20;99.90;;;;;;5081570;28;20431;-70
2023/03/27 01:54:42;;;;;;;6.70;2.10;;;3.20;99.90;;;;;;5098056;28;20752;-69
2023/03/27 01:57:16;;;;;;;6.50;1.95;;;3.20;99.90;;;;;;5078480;28;20420;-70
2023/03/27 01:59:48;;;;;;;6.18;2.40;;;3.20;99.90;;;;;;5077030;28;20908;-70
2023/03/27 02:02:21;;;;;;;7.50;2.00;;;3.20;99.90;;;;;;5073968;28;20425;-70
2023/03/27 02:04:52;;;;;;;7.63;2.80;;;3.10;99.90;;;;;;5075757;28;21014;-69
2023/03/27 02:07:25;;;;;;;7.47;2.22;;;3.10;99.90;;;;;;5086654;28;20674;-70
2023/03/27 02:09:59;;;;;;;8.82;2.17;;;3.10;99.90;;;;;;5081815;28;20423;-70
2023/03/27 02:12:30;;;;;;;8.25;2.35;;;3.10;99.90;;;;;;5071093;28;20417;-70
2023/03/27 02:15:03;;;;;;;9.57;2.78;;;3.10;99.90;;;;;;5072722;28;20455;-70
2023/03/27 02:17:33;;;;;;;7.57;2.20;;;3.10;99.90;;;;;;5076496;28;20425;-71
2023/03/27 02:20:09;;;;;;;7.45;2.50;;;3.10;99.90;;;;;;5085671;28;20526;-69
2023/03/27 02:22:38;;;;;;;5.10;1.90;;;3.00;99.90;;;;;;5094256;28;20459;-71
2023/03/27 02:25:23;;;;;;;6.75;2.20;;;3.00;99.90;;;;;;5090404;28;20441;-70
2023/03/27 02:27:56;;;;;;;6.32;2.20;;;3.00;99.90;;;;;;5075228;28;20420;-70
2023/03/27 02:30:30;;;;;;;6.28;2.10;;;2.90;99.90;;;;;;5078698;28;20416;-69
2023/03/27 02:33:07;;;;;;;7.03;2.35;;;3.00;99.90;;;;;;5067582;28;20446;-71
2023/03/27 02:35:40;;;;;;;8.65;2.70;;;2.90;99.90;;;;;;5083715;28;20447;-71
2023/03/27 02:38:16;;;;;;;4.80;2.00;;;2.90;99.90;;;;;;5086194;28;20477;-70
2023/03/27 02:40:52;;;;;;;7.28;2.28;;;3.00;99.90;;;;;;5068083;28;21079;-69
2023/03/27 02:43:21;;;;;;;6.20;1.90;;;2.90;99.90;;;;;;5067116;28;20417;-72
2023/03/27 02:45:54;;;;;;;8.57;2.45;;;2.90;99.90;;;;;;5066080;28;20438;-71
2023/03/27 02:48:28;;;;;;;5.25;2.03;;;2.90;99.90;;;;;;5075675;28;20812;-71
2023/03/27 02:50:59;;;;;;;4.55;1.90;;;2.90;99.90;;;;;;5078034;28;20434;-72
2023/03/27 02:53:28;;;;;;;5.15;2.00;;;2.90;99.90;;;;;;5086292;28;20418;-72
2023/03/27 02:55:59;;;;;;;8.80;2.40;;;2.80;99.90;;;;;;5074296;28;20521;-72
2023/03/27 02:58:31;;;;;;;8.15;2.67;;;2.90;99.90;;;;;;5088071;28;20409;-71
2023/03/27 03:00:59;;;;;;;5.40;1.90;;;2.80;99.90;;;;;;5080647;28;20506;-70
2023/03/27 03:03:31;;;;;;;7.88;2.40;;;2.90;99.90;;;;;;5089410;28;20416;-71
2023/03/27 03:05:58;;;;;;;5.85;2.30;;;2.80;99.90;;;;;;5070404;28;20443;-70
2023/03/27 03:08:29;;;;;;;6.25;2.20;;;2.80;99.90;;;;;;5094511;28;20981;-70
2023/03/27 03:11:02;;;;;;;5.88;1.73;;;2.80;99.90;;;;;;5068577;28;20423;-70
2023/03/27 03:13:29;;;;;;;5.88;1.85;;;2.80;99.90;;;;;;5075784;28;20495;-70
2023/03/27 03:15:56;;;;;;;8.35;2.00;;;2.80;99.90;;;;;;5075879;28;20415;-71
2023/03/27 03:18:23;;;;;;;6.23;2.00;;;2.80;99.90;;;;;;5081520;28;20838;-73
2023/03/27 03:20:53;;;;;;;5.63;2.28;;;2.80;99.90;;;;;;5083789;28;20864;-71
2023/03/27 03:23:21;;;;;;;5.40;1.90;;;2.70;99.90;;;;;;5098600;28;20444;-70
2023/03/27 03:25:49;;;;;;;5.80;2.20;;;2.70;99.90;;;;;;5077275;28;20614;-71
2023/03/27 03:28:17;;;;;;;5.95;2.03;;;2.70;99.90;;;;;;5068022;28;20423;-71
2023/03/27 03:30:49;;;;;;;5.38;2.05;;;2.70;99.90;;;;;;5066619;28;20419;-70
2023/03/27 03:33:16;;;;;;;5.68;1.90;;;2.60;99.90;;;;;;5071217;28;20417;-69
2023/03/27 03:35:47;;;;;;;6.65;2.10;;;2.60;99.90;;;;;;5082654;28;20442;-71
2023/03/27 03:38:14;;;;;;;5.70;2.10;;;2.60;99.90;;;;;;5082343;28;20439;-72
2023/03/27 03:40:41;;;;;;;8.65;2.00;;;2.60;99.90;;;;;;5073474;28;20901;-70
2023/03/27 03:43:08;;;;;;;5.30;2.50;;;2.60;99.90;;;;;;5070445;28;20519;-70
2023/03/27 03:45:36;;;;;;;8.18;2.30;;;2.50;99.90;;;;;;5074693;28;20412;-70
2023/03/27 03:48:03;;;;;;;7.93;2.30;;;2.50;99.90;;;;;;5071035;28;20430;-70
2023/03/27 03:50:30;;;;;;;6.38;1.83;;;2.50;99.90;;;;;;5069813;28;20431;-69
2023/03/27 03:52:56;;;;;;;4.82;1.70;;;2.40;99.90;;;;;;5100561;28;20426;-70
2023/03/27 03:55:24;;;;;;;5.68;2.50;;;2.40;99.90;;;;;;5078691;28;20905;-71
2023/03/27 03:57:51;;;;;;;4.25;1.77;;;2.40;99.90;;;;;;5070924;28;20514;-70
2023/03/27 04:00:18;;;;;;;5.87;2.40;;;2.40;99.90;;;;;;5087777;28;20850;-68
2023/03/27 04:02:50;;;;;;;6.55;2.20;;;2.40;99.90;;;;;;5076969;28;20945;-70
2023/03/27 04:05:17;;;;;;;5.18;1.90;;;2.40;99.90;;;;;;5090218;28;20433;-70
2023/03/27 04:07:44;;;;;;;6.63;2.60;;;2.40;99.90;;;;;;5090430;28;20462;-70
2023/03/27 04:10:12;;;;;;;5.07;2.20;;;2.40;99.90;;;;;;5079366;28;20498;-70
2023/03/27 04:12:39;;;;;;;6.37;2.07;;;2.30;99.90;;;;;;5104757;28;20420;-70
2023/03/27 04:15:08;;;;;;;5.22;2.22;;;2.30;99.90;;;;;;5069954;28;20801;-70
2023/03/27 04:17:34;;;;;;;5.13;2.37;;;2.30;99.90;;;;;;5086562;28;20471;-69
2023/03/27 04:20:04;;;;;;;7.80;2.40;;;2.30;99.90;;;;;;5074394;28;20423;-69
2023/03/27 04:22:36;;;;;;;5.80;2.50;;;2.30;99.90;;;;;;5088721;28;20427;-69
2023/03/27 04:25:03;;;;;;;6.78;1.90;;;2.30;99.90;;;;;;5092069;28;20427;-70
2023/03/27 04:27:30;;;;;;;6.15;2.53;;;2.30;99.90;;;;;;5070462;28;20414;-71
2023/03/27 04:29:57;;;;;;;6.95;2.17;;;2.30;99.90;;;;;;5073310;28;20422;-70
2023/03/27 04:32:25;;;;;;;6.07;2.00;;;2.30;99.90;;;;;;5093810;28;20869;-72
2023/03/27 04:34:53;;;;;;;6.85;2.47;;;2.30;99.90;;;;;;5088117;28;20489;-70
2023/03/27 04:37:22;;;;;;;6.07;2.33;;;2.30;99.90;;;;;;5081491;28;20420;-70
2023/03/27 04:39:49;;;;;;;6.47;2.63;;;2.30;99.90;;;;;;5088255;28;21063;-70
2023/03/27 04:42:15;;;;;;;5.85;1.90;;;2.30;99.90;;;;;;5083908;28;20435;-71
2023/03/27 04:44:45;;;;;;;6.75;2.00;;;2.30;99.90;;;;;;5093746;28;20495;-71
2023/03/27 04:47:12;;;;;;;7.25;2.30;;;2.30;99.90;;;;;;5076478;28;20432;-70
2023/03/27 04:49:39;;;;;;;4.35;2.40;;;2.20;99.90;;;;;;5078226;28;20421;-69
2023/03/27 04:52:06;;;;;;;7.43;2.70;;;2.20;99.90;;;;;;5081209;28;20427;-69
2023/03/27 04:54:35;;;;;;;8.00;3.27;;;2.20;99.90;;;;;;5096184;28;20499;-72
2023/03/27 04:57:02;;;;;;;6.53;2.70;;;2.20;99.90;;;;;;5084182;28;20412;-69
2023/03/27 04:59:30;;;;;;;8.25;2.60;;;2.30;99.90;;;;;;5085618;28;20906;-69
2023/03/27 05:01:57;;;;;;;6.78;2.70;;;2.20;99.90;;;;;;5079411;28;20423;-72
2023/03/27 05:04:25;;;;;;;6.43;3.13;;;2.20;99.90;;;;;;5083291;28;20445;-70
2023/03/27 05:06:52;;;;;;;5.63;3.00;;;2.20;99.90;;;;;;5080745;28;20426;-69
2023/03/27 05:09:19;;;;;;;6.50;2.63;;;2.20;99.90;;;;;;5090998;28;20424;-70
2023/03/27 05:11:48;;;;;;;6.60;3.30;;;2.20;99.90;;;;;;5101018;28;20779;-70
2023/03/27 05:14:16;;;;;;;6.70;2.70;;;2.10;99.90;;;;;;5082018;28;20427;-69
2023/03/27 05:16:42;;;;;;;5.15;2.78;;;2.20;99.90;;;;;;5079632;28;20463;-69
2023/03/27 05:19:10;;;;;;;5.85;3.10;;;2.10;99.90;;;;;;5091595;28;20454;-71
2023/03/27 05:21:37;;;;;;;9.80;3.72;;;2.10;99.90;;;;;;5081359;28;20459;-71
2023/03/27 05:24:04;;;;;;;8.07;3.30;;;2.20;99.90;;;;;;5079271;28;20434;-71
2023/03/27 05:26:31;;;;;;;7.50;3.90;;;2.20;99.90;;;;;;5082997;28;20434;-71
2023/03/27 05:28:59;;;;;;;8.20;3.43;;;2.20;99.90;;;;;;5095274;28;20705;-71
2023/03/27 05:31:27;;;;;;;8.20;2.83;;;2.20;99.90;;;;;;5078614;28;20431;-69
2023/03/27 05:36:28;;;;;;;6.43;3.20;;;2.20;99.90;;;;;;5061721;28;20445;-71
2023/03/27 05:38:56;;;;;;;5.57;2.90;;;2.30;99.90;;;;;;5065530;28;20510;-71
2023/03/27 05:41:23;;;;;;;7.13;3.40;;;2.30;99.90;;;;;;5067717;28;21143;-71
2023/03/27 05:43:50;;;;;;;7.63;3.00;;;2.30;99.90;;;;;;5062028;28;20458;-71
2023/03/27 05:46:19;;;;;;;6.68;3.05;;;2.30;99.90;;;;;;5068411;28;20891;-72
2023/03/27 05:48:46;;;;;;;6.95;3.10;;;2.40;99.90;;;;;;5071940;28;20443;-71
2023/03/27 05:51:13;;;;;;;5.50;2.70;;;2.40;99.90;;;;;;5059885;28;20864;-71
2023/03/27 05:53:40;;;;;;;7.07;2.90;;;2.50;99.90;;;;;;5077556;28;20492;-70
2023/03/27 05:56:08;;;;;;;6.97;3.00;;;2.60;99.90;;;;;;5080423;28;20499;-72
2023/03/27 05:58:35;;;;;;;6.23;2.80;;;2.70;99.90;;;;;;5059439;28;20511;-68
2023/03/27 06:01:02;;;;;;;6.60;3.53;;;2.70;99.90;;;;;;5057433;28;20433;-70
2023/03/27 06:03:30;;;;;;;7.40;4.57;;;2.80;99.90;;;;;;5059898;28;20450;-71
2023/03/27 06:05:58;;;;;;;5.65;2.70;;;2.90;99.90;;;;;;5074247;28;20499;-69
2023/03/27 06:08:25;;;;;;;6.50;2.58;;;3.00;99.90;;;;;;5066801;28;20414;-71
2023/03/27 06:10:53;;;;;;;6.38;3.20;;;3.00;99.90;;;;;;5053872;28;20535;-69
2023/03/27 06:13:20;;;;;;;6.25;3.70;;;3.20;99.90;;;;;;5068345;28;20425;-68
2023/03/27 06:15:47;;;;;;;7.47;3.40;;;3.30;99.90;;;;;;5065252;28;20411;-71
2023/03/27 06:18:14;;;;;;;7.70;2.90;;;3.40;99.90;;;;;;5069254;28;20508;-72
2023/03/27 06:20:42;;;;;;;5.70;2.93;;;3.50;99.90;;;;;;5072587;28;20433;-70
2023/03/27 06:23:09;;;;;;;9.38;3.00;;;3.50;99.90;;;;;;5063781;28;20495;-70
2023/03/27 06:25:37;;;;;;;6.40;3.10;;;3.60;99.90;;;;;;5071432;28;20418;-67
2023/03/27 06:28:07;;;;;;;5.65;3.20;;;3.60;99.90;;;;;;5055109;28;20488;-71
2023/03/27 06:30:36;;;;;;;5.22;3.15;;;3.70;99.90;;;;;;5057923;28;20774;-71
2023/03/27 06:33:04;;;;;;;4.60;2.65;;;3.70;99.90;;;;;;5070102;28;20425;-72
2023/03/27 06:35:32;;;;;;;5.75;3.20;;;3.70;99.90;;;;;;5062755;28;20420;-71
2023/03/27 06:38:01;;;;;;;4.95;2.88;;;3.80;99.90;;;;;;5057128;28;20425;-69
2023/03/27 06:40:30;;;;;;;5.68;3.03;;;3.80;99.90;;;;;;5054999;28;20510;-69
2023/03/27 06:42:58;;;;;;;5.30;3.22;;;3.80;99.90;;;;;;5058490;28;20431;-72
2023/03/27 06:45:27;;;;;;;7.45;3.20;;;3.70;99.90;;;;;;5061741;28;20532;-71
2023/03/27 06:47:56;;;;;;;4.88;2.80;;;3.80;99.90;;;;;;5058997;28;20515;-67
2023/03/27 06:50:24;;;;;;;3.80;2.70;;;4.00;99.90;;;;;;5059823;28;20427;-71
2023/03/27 06:52:50;;;;;;;5.85;3.10;;;4.10;99.90;;;;;;5061372;28;20484;-70
2023/03/27 06:55:22;;;;;;;4.30;2.97;;;4.20;99.90;;;;;;5056391;28;20446;-71
2023/03/27 06:57:51;;;;;;;5.00;2.85;;;4.30;99.90;;;;;;5063475;28;20450;-71
2023/03/27 07:00:23;;;;;;;4.90;2.80;;;4.40;99.90;;;;;;5059641;28;20761;-70
2023/03/27 07:02:53;;;;;;;7.50;2.90;;;4.30;99.90;;;;;;5050300;28;20444;-70
2023/03/27 07:05:20;;;;;;;6.97;3.10;;;4.30;99.90;;;;;;5059227;28;20431;-72
2023/03/27 07:07:47;;;;;;;5.70;2.55;;;4.30;99.90;;;;;;5061139;28;20777;-66
2023/03/27 07:10:14;;;;;;;4.88;2.90;;;4.20;99.90;;;;;;5062459;28;20454;-70
2023/03/27 07:12:45;;;;;;;7.88;2.60;;;4.20;99.90;;;;;;5054892;28;20756;-70
2023/03/27 07:15:12;;;;;;;4.93;2.80;;;4.30;99.90;;;;;;5059291;28;20431;-70
2023/03/27 07:17:41;;;;;;;5.00;2.90;;;4.40;99.90;;;;;;5063099;28;20427;-70
2023/03/27 07:20:10;;;;;;;3.22;2.30;;;4.50;99.50;;;;;;5062181;28;20507;-70
2023/03/27 07:22:37;;;;;;;5.10;2.10;;;4.50;99.90;;;;;;5056205;28;20421;-70
2023/03/27 07:25:05;;;;;;;4.45;2.40;;;4.70;99.70;;;;;;5071458;28;20442;-70
2023/03/27 07:27:32;;;;;;;3.88;2.00;;;4.80;99.90;;;;;;5062178;28;20440;-68
2023/03/27 07:30:00;;;;;;;6.03;1.95;;;5.00;99.60;;;;;;5061556;28;20435;-68
2023/03/27 07:32:28;;;;;;;6.40;2.60;;;5.10;97.70;;;;;;5062956;28;20511;-71
2023/03/27 07:34:55;;;;;;;6.07;2.50;;;5.20;97.60;;;;;;5071318;28;20527;-70
2023/03/27 07:37:22;;;;;;;5.00;2.30;;;5.30;97.20;;;;;;5075587;28;20419;-70
2023/03/27 07:39:49;;;;;;;4.10;2.20;;;5.40;97.80;;;;;;5062636;28;20427;-73
2023/03/27 07:42:16;;;;;;;3.42;1.98;;;5.50;95.70;;;;;;5057168;28;20420;-73
2023/03/27 07:44:43;;;;;;;5.45;2.35;;;5.50;95.20;;;;;;5067795;28;20780;-73
2023/03/27 07:47:11;;;;;;;4.40;2.05;;;5.40;96.00;;;;;;5069028;28;20444;-72
2023/03/27 07:49:38;;;;;;;6.07;2.10;;;5.50;96.10;;;;;;5067258;28;20499;-73
2023/03/27 07:52:05;;;;;;;4.38;2.30;;;5.60;96.00;;;;;;5068135;28;20412;-72
2023/03/27 07:54:32;;;;;;;5.10;2.60;;;5.80;96.20;;;;;;5067220;28;20822;-73
2023/03/27 07:56:58;;;;;;;5.32;2.50;;;5.90;96.00;;;;;;5070828;28;20427;-73
2023/03/27 07:59:26;;;;;;;3.83;2.00;;;6.00;95.40;;;;;;5055204;28;20888;-70
2023/03/27 08:01:54;;;;;;;4.00;2.20;;;6.20;94.70;;;;;;5075387;28;20421;-71
2023/03/27 08:04:22;;;;;;;3.15;1.83;;;6.40;93.90;;;;;;5071945;28;20479;-73
2023/03/27 08:06:53;;;;;;;4.88;2.60;;;6.50;93.20;;;;;;5052742;28;20438;-73
2023/03/27 08:09:20;;;;;;;3.53;2.20;;;6.70;92.10;;;;;;5073887;28;20890;-73
2023/03/27 08:11:49;;;;;;;3.53;2.25;;;6.80;91.60;;;;;;5071027;28;20411;-73
2023/03/27 08:14:16;;;;;;;4.50;2.00;;;7.00;91.20;;;;;;5048509;28;20431;-72
2023/03/27 08:16:42;;;;;;;4.25;1.70;;;7.20;88.90;;;;;;5054046;28;20882;-73
2023/03/27 08:19:10;;;;;;;3.65;1.80;;;7.30;84.80;;;;;;5070582;28;20430;-73
2023/03/27 08:21:39;;;;;;;4.53;1.70;;;7.30;86.60;;;;;;5055103;28;20425;-73
2023/03/27 08:24:07;;;;;;;3.33;1.48;;;7.40;81.30;;;;;;5061368;28;20428;-73
2023/03/27 08:26:35;;;;;;;3.30;1.80;;;7.50;84.30;;;;;;5051465;28;20541;-72
2023/03/27 08:29:02;;;;;;;3.67;1.90;;;7.60;86.00;;;;;;5072819;28;20479;-73
2023/03/27 08:31:30;;;;;;;4.18;1.75;;;7.90;83.10;;;;;;5065006;28;20488;-74
2023/03/27 08:33:57;;;;;;;3.80;1.50;;;8.00;81.80;;;;;;5071689;28;20414;-73
2023/03/27 08:36:23;;;;;;;2.92;1.38;;;8.20;78.10;;;;;;5061553;28;20424;-73
2023/03/27 08:38:53;;;;;;;3.40;1.60;;;8.30;75.90;;;;;;5051935;28;20433;-72
2023/03/27 08:41:29;;;;;;;3.53;1.80;;;8.40;74.40;;;;;;5048777;28;20429;-72
2023/03/27 08:44:00;;;;;;;3.58;1.60;;;8.60;77.00;;;;;;5061109;28;20496;-73
2023/03/27 08:46:30;;;;;;;4.35;1.60;;;9.00;75.20;;;;;;5064895;28;20440;-73
2023/03/27 08:49:01;;;;;;;2.53;1.20;;;9.30;70.90;;;;;;5078442;28;20412;-72
2023/03/27 08:51:33;;;;;;;3.70;1.80;;;9.30;63.80;;;;;;5063803;28;20465;-73
2023/03/27 08:54:08;;;;;;;4.00;1.50;;;9.10;62.20;;;;;;5059263;28;20442;-74
2023/03/27 08:56:36;;;;;;;3.78;1.50;;;8.90;65.30;;;;;;5069367;28;21022;-73
2023/03/27 08:59:03;;;;;;;2.97;1.60;;;8.90;68.50;;;;;;5057881;28;20436;-73
2023/03/27 09:01:39;;;;;;;2.97;1.50;;;8.90;67.20;;;;;;5057265;28;20437;-74
2023/03/27 09:04:15;;;;;;;4.90;1.90;;;9.00;66.00;;;;;;5065880;28;20434;-74
2023/03/27 09:06:52;;;;;;;4.30;1.55;;;8.90;66.10;;;;;;5073932;28;20484;-74
2023/03/27 09:09:31;;;;;;;4.35;1.60;;;8.80;64.90;;;;;;5060200;28;20640;-74
2023/03/27 09:12:08;;;;;;;3.38;1.20;;;8.60;62.90;;;;;;5061439;28;20425;-73
2023/03/27 09:14:38;;;;;;;3.80;1.67;;;8.30;65.00;;;;;;5059950;28;20470;-72
2023/03/27 09:17:14;;;;;;;5.20;2.00;;;8.00;68.50;;;;;;5065296;28;20450;-73
2023/03/27 09:19:46;;;;;;;3.53;1.80;;;7.70;70.40;;;;;;5068948;28;20685;-74
2023/03/27 09:22:18;;;;;;;4.82;2.20;;;7.40;74.60;;;;;;5053214;28;20855;-74
2023/03/27 09:24:50;;;;;;;4.18;2.00;;;7.30;74.30;;;;;;5058201;28;20605;-72
2023/03/27 09:27:22;;;;;;;4.32;1.65;;;7.30;73.10;;;;;;5056896;28;20560;-75
2023/03/27 09:29:57;;;;;;;3.90;1.83;;;7.10;74.20;;;;;;5056940;28;20476;-73
2023/03/27 09:32:25;;;;;;;4.30;2.00;;;7.00;75.70;;;;;;5073282;28;20432;-72
2023/03/27 09:34:52;;;;;;;3.60;1.85;;;7.20;74.40;;;;;;5058446;28;20476;-73
2023/03/27 09:37:19;;;;;;;4.97;2.50;;;7.70;75.10;;;;;;5066277;28;20437;-73
2023/03/27 09:39:51;;;;;;;4.63;1.90;;;8.10;71.30;;;;;;5059564;28;20491;-73
2023/03/27 09:42:22;;;;;;;5.22;2.25;;;8.20;70.00;;;;;;5061183;28;20431;-73
2023/03/27 09:44:54;;;;;;;3.05;1.70;;;8.20;62.50;;;;;;5060492;28;20499;-74
2023/03/27 09:47:27;;;;;;;3.10;1.77;;;8.10;62.00;;;;;;5063873;28;20428;-73
2023/03/27 09:49:57;;;;;;;3.08;1.50;;;7.90;65.20;;;;;;5060094;28;20429;-74
2023/03/27 09:52:36;;;;;;;4.90;2.00;;;8.10;62.10;;;;;;5057990;28;20423;-71
2023/03/27 09:55:23;;;;;;;5.00;2.00;;;8.40;64.00;;;;;;5067394;28;20444;-74
2023/03/27 09:57:57;;;;;;;4.20;2.00;;;9.00;62.00;;;;;;5071941;28;20448;-73
2023/03/27 10:00:30;;;;;;;3.70;1.90;;;9.70;53.20;;;;;;5066326;28;20421;-72
2023/03/27 10:03:04;;;;;;;4.70;1.90;;;10.20;54.90;;;;;;5053188;28;20507;-74
2023/03/27 10:05:31;;;;;;;3.85;1.70;;;10.40;53.90;;;;;;5073711;28;20425;-73
2023/03/27 10:07:58;;;;;;;3.75;2.00;;;10.30;52.80;;;;;;5069463;28;20445;-72
2023/03/27 10:10:31;;;;;;;4.40;1.63;;;10.20;54.70;;;;;;5063221;28;20706;-74
2023/03/27 10:13:00;;;;;;;3.22;1.83;;;9.80;50.80;;;;;;5059898;28;20484;-74
2023/03/27 10:15:35;;;;;;;3.08;1.77;;;9.70;53.10;;;;;;5069345;28;20451;-71
2023/03/27 10:18:06;;;;;;;4.03;1.95;;;10.00;54.40;;;;;;5072558;28;20882;-74
2023/03/27 10:20:32;;;;;;;4.45;2.50;;;10.50;50.80;;;;;;5073205;28;21168;-73
2023/03/27 10:23:01;;;;;;;3.42;1.88;;;10.50;52.10;;;;;;5076481;28;20428;-73
2023/03/27 10:25:33;;;;;;;4.50;1.98;;;10.40;51.80;;;;;;5071437;28;20444;-73
2023/03/27 10:28:14;;;;;;;3.78;1.65;;;10.10;52.00;;;;;;5065793;28;20429;-73
2023/03/27 10:30:41;;;;;;;3.10;1.60;;;9.70;53.30;;;;;;5069478;28;20424;-73
2023/03/27 10:33:08;;;;;;;4.32;1.80;;;9.80;52.80;;;;;;5077667;28;20444;-73
2023/03/27 10:35:37;;;;;;;2.78;1.40;;;10.10;53.50;;;;;;5077984;28;20440;-74
2023/03/27 10:38:10;;;;;;;5.18;2.47;;;10.50;52.70;;;;;;5066300;28;20522;-74
2023/03/27 10:40:40;;;;;;;3.05;1.40;;;10.90;51.80;;;;;;5061929;28;20448;-70
2023/03/27 10:43:11;;;;;;;4.75;1.83;;;11.00;50.50;;;;;;5061107;28;20443;-71
2023/03/27 10:45:45;;;;;;;3.65;2.20;;;10.60;51.20;;;;;;5057458;28;20451;-72
2023/03/27 10:48:21;;;;;;;4.75;1.95;;;10.10;54.80;;;;;;5061053;28;20871;-73
2023/03/27 10:50:56;;;;;;;3.07;1.80;;;9.60;55.10;;;;;;5062374;28;20430;-72
2023/03/27 10:53:31;;;;;;;5.53;1.88;;;9.20;57.00;;;;;;5067433;28;20522;-73
2023/03/27 10:56:09;;;;;;;2.97;1.52;;;9.00;57.60;;;;;;5065072;28;20524;-73
2023/03/27 10:58:44;;;;;;;3.92;1.45;;;9.30;55.70;;;;;;5064442;28;20507;-74
2023/03/27 11:01:16;;;;;;;3.15;1.45;;;9.70;56.30;;;;;;5062070;28;20878;-74
2023/03/27 11:03:50;;;;;;;3.60;1.60;;;10.00;50.80;;;;;;5056764;28;20462;-72
2023/03/27 11:06:21;;;;;;;4.47;1.80;;;10.40;52.30;;;;;;5065591;28;20473;-74
2023/03/27 11:09:00;;;;;;;3.22;1.70;;;10.90;51.90;;;;;;5055411;28;20432;-74
2023/03/27 11:11:35;;;;;;;5.13;1.58;;;11.50;47.70;;;;;;5059853;28;20440;-73
2023/03/27 11:14:09;;;;;;;3.83;1.50;;;11.30;47.70;;;;;;5058532;28;20551;-74
2023/03/27 11:16:39;;;;;;;2.78;1.30;;;11.10;47.70;;;;;;5041702;28;20454;-73
2023/03/27 11:19:25;;;;;;;4.32;2.30;;;11.10;45.00;;;;;;5061120;28;20428;-74
2023/03/27 11:21:56;;;;;;;4.18;1.60;;;11.00;44.90;;;;;;5056225;28;20485;-73
2023/03/27 11:24:33;;;;;;;2.35;1.42;;;11.10;47.00;;;;;;5057386;28;20439;-73
2023/03/27 11:27:06;;;;;;;2.63;1.25;;;11.20;47.10;;;;;;5059514;28;20457;-72
2023/03/27 11:29:40;;;;;;;2.83;1.70;;;11.10;46.90;;;;;;5061385;28;21020;-73
2023/03/27 11:32:15;;;;;;;3.85;1.50;;;10.80;49.30;;;;;;5061700;28;20436;-71
2023/03/27 11:34:48;;;;;;;4.15;1.70;;;10.60;48.90;;;;;;5067511;22;20427;-70
2023/03/27 11:37:20;;;;;;;3.13;1.30;;;10.40;50.10;;;;;;5039120;28;20619;-70
2023/03/27 11:39:52;;;;;;;7.28;3.90;;;10.30;50.90;;;;;;5045610;28;20444;-71
2023/03/27 11:42:24;;;;;;;45.72;29.02;;;10.50;53.80;;;;;;5044115;28;20955;-69
2023/03/27 11:44:51;;;;;;;6.47;4.00;;;10.90;54.00;;;;;;5046632;28;20506;-70
2023/03/27 11:47:43;;;;;;;3.55;1.60;;;11.40;49.10;;;;;;5045396;28;20433;-70
2023/03/27 11:50:26;;;;;;;3.28;1.48;;;11.70;45.80;;;;;;5055889;28;20437;-69
2023/03/27 11:53:05;;;;;;;2.28;1.40;;;11.90;46.50;;;;;;5046843;28;20435;-69
2023/03/27 11:55:39;;;;;;;3.63;2.10;;;12.10;47.60;;;;;;5046999;28;20432;-70
2023/03/27 11:58:19;;;;;;;3.20;1.70;;;12.40;46.20;;;;;;5047750;28;20429;-70
2023/03/27 12:00:52;;;;;;;3.20;1.67;;;12.50;44.20;;;;;;5045013;28;20425;-69
2023/03/27 12:03:59;;;;;;;1.98;1.10;;;12.30;45.30;;;;;;5040868;28;21177;-66
2023/03/27 12:06:33;;;;;;;7.10;4.95;;;12.00;47.60;;;;;;5043441;28;20425;-69
2023/03/27 12:09:11;;;;;;;4.80;1.70;;;11.70;49.10;;;;;;5045403;28;20442;-70
2023/03/27 12:11:42;;;;;;;2.78;1.48;;;11.10;58.70;;;;;;5044405;28;20521;-68
2023/03/27 12:14:40;;;;;;;5.47;2.20;;;10.20;75.80;;;;;;5045801;28;20433;-69
2023/03/27 12:17:20;;;;;;;3.53;1.95;;;9.20;90.00;;;;;;5027916;28;20449;-72
2023/03/27 12:20:20;;;;;;;4.88;2.30;;;8.50;93.00;;;;;;5046775;28;20429;-68
2023/03/27 12:22:58;;;;;;;4.00;1.95;;;8.00;94.80;;;;;;5039970;28;20428;-70
2023/03/27 12:25:51;;;;;;;4.63;2.30;;;7.80;96.90;;;;;;5045344;28;21409;-71
2023/03/27 12:28:37;;;;;;;4.80;2.33;;;8.00;99.70;;;;;;5046972;28;20479;-71
2023/03/27 12:31:22;;;;;;;3.97;1.85;;;8.80;99.90;;;;;;5054802;28;20433;-71
2023/03/27 12:33:56;;;;;;;5.22;2.10;;;9.70;97.70;;;;;;5043593;28;20464;-70
2023/03/27 12:36:26;;;;;;;3.35;1.70;;;10.00;91.70;;;;;;5049869;28;20433;-69
2023/03/27 12:38:54;;;;;;;3.00;1.60;;;9.70;91.40;;;;;;5048736;28;20437;-70
2023/03/27 12:41:23;;;;;;;4.38;1.90;;;9.60;88.60;;;;;;5049505;28;20456;-71
2023/03/27 12:43:55;;;;;;;2.88;1.55;;;9.50;90.60;;;;;;5043545;28;20955;-70
2023/03/27 12:46:36;;;;;;;3.30;1.77;;;9.40;91.10;;;;;;5043339;28;20470;-70
2023/03/27 12:49:19;;;;;;;2.17;0.90;;;9.50;90.20;;;;;;5060895;28;20417;-70
2023/03/27 12:52:03;;;;;;;2.33;1.00;;;9.60;83.90;;;;;;5058529;28;20605;-70
2023/03/27 12:54:31;;;;;;;1.90;0.85;;;9.70;72.70;;;;;;5046955;28;20932;-69
2023/03/27 12:57:03;;;;;;;2.17;0.80;;;9.90;72.70;;;;;;5048949;28;20433;-70
2023/03/27 12:59:33;;;;;;;3.33;0.87;;;10.20;63.80;;;;;;5045265;28;20532;-67
2023/03/27 13:02:36;;;;;;;1.80;0.90;;;10.40;66.30;;;;;;5046015;28;20444;-68
2023/03/27 13:05:35;;;;;;;5.20;3.50;;;10.90;65.80;;;;;;5046888;28;20432;-68
2023/03/27 13:08:44;;;;;;;1.40;0.80;;;11.50;57.90;;;;;;5060400;28;20560;-69
2023/03/27 13:11:26;;;;;;;1.70;1.00;;;11.60;58.30;;;;;;5050645;28;20832;-70
2023/03/27 13:14:16;;;;;;;2.80;1.00;;;11.50;54.20;;;;;;5049624;28;20433;-70
2023/03/27 13:16:55;;;;;;;2.35;1.00;;;11.10;57.10;;;;;;5052525;28;20519;-70
2023/03/27 13:19:46;;;;;;;2.03;0.90;;;11.60;59.50;;;;;;5052879;28;20427;-70
2023/03/27 13:22:29;;;;;;;1.70;0.98;;;12.00;55.20;;;;;;5042234;28;20436;-69